Time;durP1;ratioP1;P1;durP2;ratioP2;P2;SDS_P1;SDS_P2;PMS_P1;PMS_P2;Temp;Humidity;BMP_temperature;BMP_pressure;BME280_temperature;BME280_humidity;BME280_pressure;Samples;Min_cycle;Max_cycle;Signal;HPM_P1;HPM_P2
2022/01/13 00:00:55;;;;;;;;;52.33;35.67;;;;;3.90;100.00;103795.78;5059161;28;45133;-82
2022/01/13 00:03:20;;;;;;;;;44.33;35.00;;;;;3.79;100.00;103796.56;5058258;28;44881;-82
2022/01/13 00:05:46;;;;;;;;;51.00;37.67;;;;;3.72;100.00;103799.09;5059663;28;44749;-81
2022/01/13 00:08:11;;;;;;;;;53.67;42.33;;;;;3.61;100.00;103799.84;5064764;28;45048;-82
2022/01/13 00:10:36;;;;;;;;;51.33;42.33;;;;;3.50;100.00;103801.50;5064671;28;44930;-81
2022/01/13 00:13:06;;;;;;;;;57.33;40.33;;;;;3.41;100.00;103792.63;5062267;28;45530;-83
2022/01/13 00:15:45;;;;;;;;;34.00;31.67;;;;;3.40;100.00;103799.63;5062246;28;44804;-82
2022/01/13 00:18:16;;;;;;;;;60.00;45.00;;;;;3.35;100.00;103796.94;5061465;28;44831;-82
2022/01/13 00:26:06;;;;;;;;;46.67;40.67;;;;;3.25;100.00;103813.44;5071514;28;44733;-83
2022/01/13 00:28:32;;;;;;;;;54.00;40.33;;;;;3.24;100.00;103809.06;5072757;28;45248;-82
2022/01/13 00:30:58;;;;;;;;;40.33;35.67;;;;;3.29;100.00;103801.25;5073195;28;44951;-82
2022/01/13 00:33:25;;;;;;;;;49.67;38.00;;;;;3.34;100.00;103792.56;5071401;28;45276;-82
2022/01/13 00:35:53;;;;;;;;;58.00;45.33;;;;;3.34;100.00;103800.44;5067424;28;44769;-82
2022/01/13 00:38:19;;;;;;;;;37.67;30.00;;;;;3.30;100.00;103808.25;5064874;28;45435;-83
2022/01/13 00:40:44;;;;;;;;;47.33;39.00;;;;;3.34;100.00;103802.19;5063967;28;45504;-82
2022/01/13 00:43:09;;;;;;;;;47.33;38.00;;;;;3.34;100.00;103804.81;5065589;28;45019;-82
2022/01/13 00:45:35;;;;;;;;;58.33;38.33;;;;;3.41;100.00;103790.00;5062828;28;44757;-82
2022/01/13 00:48:00;;;;;;;;;49.00;37.67;;;;;3.42;100.00;103797.00;5055941;28;45123;-81
2022/01/13 00:50:25;;;;;;;;;46.00;36.33;;;;;3.41;100.00;103797.88;5057760;28;44786;-81
2022/01/13 00:52:51;;;;;;;;;52.00;42.33;;;;;3.40;100.00;103798.75;5056722;28;45521;-82
2022/01/13 00:55:21;;;;;;;;;40.00;27.67;;;;;3.37;100.00;103791.69;5058278;28;44815;-81
2022/01/13 00:57:47;;;;;;;;;47.00;37.33;;;;;3.42;100.00;103797.88;5057952;28;45335;-82
2022/01/13 01:00:13;;;;;;;;;41.33;33.67;;;;;3.44;100.00;103792.66;5056800;28;45276;-82
2022/01/13 01:02:38;;;;;;;;;42.33;28.00;;;;;3.46;100.00;103797.06;5057843;28;45423;-82
2022/01/13 01:05:04;;;;;;;;;39.67;32.67;;;;;3.47;100.00;103793.56;5057456;28;44777;-81
2022/01/13 01:07:29;;;;;;;;;33.00;25.33;;;;;3.51;100.00;103802.38;5056784;28;44794;-82
2022/01/13 01:09:58;;;;;;;;;25.67;22.33;;;;;3.45;100.00;103786.53;5056592;28;45252;-82
2022/01/13 01:12:24;;;;;;;;;31.67;25.33;;;;;3.38;100.00;103796.06;5058316;28;45059;-82
2022/01/13 01:14:55;;;;;;;;;34.00;26.00;;;;;3.35;100.00;103782.91;5059043;28;44829;-81
2022/01/13 01:17:20;;;;;;;;;32.00;21.33;;;;;3.34;100.00;103782.03;5060754;28;44776;-82
2022/01/13 01:19:49;;;;;;;;;29.33;22.33;;;;;3.39;100.00;103787.34;5067014;28;44913;-82
2022/01/13 01:27:37;;;;;;;;;29.00;24.33;;;;;3.50;100.00;103777.84;5058203;28;44759;-83
2022/01/13 01:30:11;;;;;;;;;25.00;21.67;;;;;3.50;100.00;103779.59;5057571;28;45358;-82
2022/01/13 01:32:38;;;;;;;;;33.00;24.33;;;;;3.50;100.00;103784.84;5057331;28;45007;-82
2022/01/13 01:35:12;;;;;;;;;26.00;18.67;;;;;3.51;100.00;103782.22;5057107;28;44769;-81
2022/01/13 01:37:39;;;;;;;;;21.33;15.67;;;;;3.51;100.00;103781.34;5058020;28;45359;-81
2022/01/13 01:40:06;;;;;;;;;22.00;22.00;;;;;3.49;100.00;103772.56;5057434;28;44982;-82
2022/01/13 01:42:32;;;;;;;;;33.67;24.00;;;;;3.48;100.00;103779.59;5055112;28;45345;-82
2022/01/13 01:44:59;;;;;;;;;24.67;23.33;;;;;3.48;100.00;103782.22;5057290;28;45136;-80
2022/01/13 01:47:29;;;;;;;;;21.33;20.00;;;;;3.48;100.00;103769.06;5056064;28;44863;-81
2022/01/13 01:49:59;;;;;;;;;26.33;21.67;;;;;3.48;100.00;103776.03;5057176;28;44755;-81
2022/01/13 01:52:26;;;;;;;;;28.67;28.67;;;;;3.44;100.00;103775.16;5057411;28;45212;-82
2022/01/13 01:54:52;;;;;;;;;22.67;18.33;;;;;3.42;100.00;103768.09;5059362;27;44797;-82
2022/01/13 01:57:20;;;;;;;;;30.67;24.67;;;;;3.35;100.00;103769.78;5065101;28;44756;-80
2022/01/13 01:59:46;;;;;;;;;25.00;21.67;;;;;3.29;100.00;103788.97;5058937;28;45485;-81
2022/01/13 02:02:14;;;;;;;;;27.00;24.33;;;;;3.23;100.00;103782.75;5056577;28;45297;-82
2022/01/13 02:04:39;;;;;;;;;9.67;3.00;;;;;3.21;100.00;103789.75;5057078;28;44731;-82
2022/01/13 02:07:07;;;;;;;;;44.00;28.00;;;;;3.23;100.00;103788.88;5056832;28;44793;-82
2022/01/13 02:09:36;;;;;;;;;25.33;15.33;;;;;3.17;100.00;103794.06;5055552;28;44828;-81
2022/01/13 02:12:06;;;;;;;;;29.00;24.67;;;;;3.06;100.00;103804.44;5056449;28;45113;-82
2022/01/13 02:14:47;;;;;;;;;33.00;23.00;;;;;3.01;100.00;103802.63;5056912;28;44913;-81
2022/01/13 02:17:21;;;;;;;;;24.33;23.33;;;;;2.94;100.00;103800.75;5057863;28;45312;-80
2022/01/13 02:19:46;;;;;;;;;16.67;12.00;;;;;2.89;100.00;103807.66;5058636;28;44753;-80
2022/01/13 02:22:12;;;;;;;;;33.00;28.67;;;;;2.78;100.00;103803.16;5058041;28;45019;-81
2022/01/13 02:24:39;;;;;;;;;27.33;20.33;;;;;2.76;100.00;103806.63;5057339;28;44635;-81
2022/01/13 02:27:06;;;;;;;;;26.33;23.67;;;;;2.77;100.00;103826.75;5056765;28;45571;-81
2022/01/13 02:29:33;;;;;;;;;27.33;25.00;;;;;2.68;100.00;103829.25;5058352;28;44903;-81
2022/01/13 02:31:58;;;;;;;;;31.33;24.33;;;;;2.66;100.00;103823.97;5059336;28;47183;-82
2022/01/13 02:34:24;;;;;;;;;33.00;26.00;;;;;2.70;100.00;103815.25;5064402;28;45331;-80
2022/01/13 02:36:53;;;;;;;;;35.00;21.33;;;;;2.71;100.00;103824.06;5063415;28;44792;-81
2022/01/13 02:39:24;;;;;;;;;23.00;21.67;;;;;2.70;100.00;103814.38;5056630;28;44725;-81
2022/01/13 02:41:50;;;;;;;;;26.50;19.50;;;;;2.76;100.00;103812.75;5056696;28;44989;-81
2022/01/13 02:44:19;;;;;;;;;24.33;16.00;;;;;2.83;100.00;103808.47;5056493;28;44779;-81
2022/01/13 02:49:21;;;;;;;;;20.33;15.33;;;;;2.88;100.00;103792.78;5056361;28;45585;-81
2022/01/13 02:51:51;;;;;;;;;22.00;20.33;;;;;2.91;100.00;103798.09;5056336;28;45157;-81
2022/01/13 02:54:17;;;;;;;;;23.00;17.67;;;;;2.95;100.00;103797.25;5056202;28;44795;-81
2022/01/13 02:56:43;;;;;;;;;25.33;22.00;;;;;3.01;100.00;103797.34;5054668;28;44717;-81
2022/01/13 02:59:10;;;;;;;;;25.33;17.00;;;;;3.01;100.00;103795.63;5056428;28;44806;-81
2022/01/13 03:01:36;;;;;;;;;25.33;21.67;;;;;2.98;100.00;103789.44;5055771;28;45192;-81
2022/01/13 03:04:06;;;;;;;;;31.00;24.33;;;;;2.92;100.00;103795.47;5055910;28;44809;-81
2022/01/13 03:06:35;;;;;;;;;24.67;17.33;;;;;2.88;100.00;103790.16;5054993;28;44760;-81
2022/01/13 03:09:04;;;;;;;;;38.00;27.00;;;;;2.83;100.00;103793.59;5055898;28;45358;-82
2022/01/13 03:11:36;;;;;;;;;21.67;17.33;;;;;2.81;100.00;103795.34;5056160;28;45429;-80
2022/01/13 03:14:03;;;;;;;;;23.00;21.67;;;;;2.83;100.00;103787.47;5062088;28;44793;-81
2022/01/13 03:16:29;;;;;;;;;22.33;18.00;;;;;2.83;100.00;103790.97;5063675;28;44798;-80
2022/01/13 03:18:55;;;;;;;;;21.00;21.00;;;;;2.83;100.00;103793.59;5056852;28;44998;-82
2022/01/13 03:21:20;;;;;;;;;20.67;20.00;;;;;2.83;100.00;103785.72;5059166;28;45206;-82
2022/01/13 03:23:46;;;;;;;;;22.00;17.67;;;;;2.85;100.00;103785.72;5061794;28;44812;-81
2022/01/13 03:26:12;;;;;;;;;27.67;20.33;;;;;2.89;100.00;103784.03;5057684;28;44788;-83
2022/01/13 03:28:51;;;;;;;;;17.67;17.67;;;;;2.92;100.00;103777.09;5056483;28;44971;-82
2022/01/13 03:31:18;;;;;;;;;24.33;20.00;;;;;2.96;100.00;103784.16;5056305;28;45396;-83
2022/01/13 03:33:44;;;;;;;;;18.67;15.67;;;;;2.94;100.00;103785.00;5057269;28;44796;-83
2022/01/13 03:36:10;;;;;;;;;33.33;21.00;;;;;2.90;100.00;103778.84;5057793;28;45217;-82
2022/01/13 03:38:36;;;;;;;;;22.00;17.00;;;;;2.90;100.00;103770.97;5057137;28;44762;-84
2022/01/13 03:41:02;;;;;;;;;21.33;20.67;;;;;2.87;100.00;103772.66;5055973;28;45221;-82
2022/01/13 03:43:27;;;;;;;;;20.00;19.67;;;;;2.83;100.00;103771.72;5054898;28;44888;-84
2022/01/13 03:45:53;;;;;;;;;23.67;21.00;;;;;2.88;100.00;103767.41;5055542;28;45211;-83
2022/01/13 03:48:19;;;;;;;;;19.33;16.00;;;;;2.92;100.00;103774.47;5056023;28;44830;-83
2022/01/13 03:50:44;;;;;;;;;26.00;23.33;;;;;2.95;100.00;103768.38;5056528;28;45999;-83
2022/01/13 03:53:28;;;;;;;;;23.33;22.33;;;;;2.93;100.00;103767.47;5056441;28;45480;-82
2022/01/13 03:56:21;;;;;;;;;22.00;20.67;;;;;2.93;100.00;103767.47;5064532;28;45178;-81
2022/01/13 03:59:36;;;;;;;;;28.33;23.67;;;;;2.90;100.00;103770.03;5058791;28;45342;-82
2022/01/13 04:02:04;;;;;;;;;23.00;19.33;;;;;2.91;100.00;103769.22;5055364;28;45246;-83
2022/01/13 04:04:39;;;;;;;;;19.00;14.00;;;;;2.81;100.00;103766.44;5055320;28;44850;-83
2022/01/13 04:07:25;;;;;;;;;22.00;20.00;;;;;2.72;100.00;103761.06;5055812;28;44891;-82
2022/01/13 04:09:50;;;;;;;;;23.67;20.00;;;;;2.68;100.00;103767.13;5055476;28;44778;-84
2022/01/13 04:12:18;;;;;;;;;29.33;26.33;;;;;2.62;100.00;103763.53;5055453;28;45411;-83
2022/01/13 04:17:14;;;;;;;;;19.00;13.33;;;;;2.34;100.00;103788.47;5056023;28;44724;-83
2022/01/13 04:19:40;;;;;;;;;22.67;20.00;;;;;2.22;100.00;103784.75;5058159;28;44689;-83
2022/01/13 04:22:06;;;;;;;;;19.33;17.00;;;;;2.19;100.00;103783.84;5056797;28;44984;-83
2022/01/13 04:24:32;;;;;;;;;26.00;20.67;;;;;2.20;100.00;103786.47;5060961;28;44806;-83
2022/01/13 04:26:58;;;;;;;;;17.00;12.67;;;;;2.18;100.00;103788.22;5062607;28;44851;-84
2022/01/13 04:29:33;;;;;;;;;21.00;15.33;;;;;2.20;100.00;103777.72;5061955;28;45315;-83
2022/01/13 04:32:00;;;;;;;;;30.33;18.00;;;;;2.29;100.00;103772.66;5061857;28;45416;-83
2022/01/13 04:34:26;;;;;;;;;19.67;19.67;;;;;2.36;100.00;103771.88;5059106;28;44809;-83
2022/01/13 04:36:54;;;;;;;;;27.00;23.00;;;;;2.38;100.00;103769.28;5065920;28;44804;-84
2022/01/13 04:39:20;;;;;;;;;24.33;18.33;;;;;2.38;100.00;103764.03;5079564;28;45028;-83
2022/01/13 04:41:47;;;;;;;;;24.33;17.33;;;;;2.42;100.00;103761.50;5081273;27;45557;-83
2022/01/13 04:44:18;;;;;;;;;19.67;16.00;;;;;2.44;100.00;103753.63;5079981;27;45360;-85
2022/01/13 04:46:48;;;;;;;;;25.00;20.00;;;;;2.44;100.00;103758.88;5082800;27;44819;-81
2022/01/13 04:49:14;;;;;;;;;12.00;12.00;;;;;2.48;100.00;103766.84;5082681;27;45448;-83
2022/01/13 04:51:41;;;;;;;;;29.00;19.00;;;;;2.47;100.00;103761.56;5081609;27;45075;-83
2022/01/13 04:54:07;;;;;;;;;24.33;20.67;;;;;2.45;100.00;103752.78;5080070;27;45326;-82
2022/01/13 04:59:14;;;;;;;;;22.00;21.00;;;;;2.41;100.00;103762.31;5078584;28;45325;-83
2022/01/13 05:01:40;;;;;;;;;26.33;20.00;;;;;2.47;100.00;103774.69;5078645;28;45018;-83
2022/01/13 05:04:06;;;;;;;;;25.00;20.33;;;;;2.47;100.00;103765.06;5078610;27;44725;-83
2022/01/13 05:06:32;;;;;;;;;29.00;26.00;;;;;2.47;100.00;103772.06;5078496;27;44787;-85
2022/01/13 05:08:58;;;;;;;;;18.00;15.75;;;;;2.45;100.00;103776.38;5078777;28;45281;-84
2022/01/13 05:11:24;;;;;;;;;21.33;16.67;;;;;2.44;100.00;103770.25;5078087;27;45353;-82
2022/01/13 05:13:50;;;;;;;;;21.67;17.00;;;;;2.44;100.00;103772.00;5079363;27;45381;-83
2022/01/13 05:16:24;;;;;;;;;20.00;15.67;;;;;2.40;100.00;103773.69;5080106;27;44911;-84
2022/01/13 05:21:26;;;;;;;;;24.00;20.33;;;;;2.41;100.00;103779.81;5086727;27;45395;-83
2022/01/13 05:23:53;;;;;;;;;21.67;18.00;;;;;2.41;100.00;103785.06;5080892;27;45447;-82
2022/01/13 05:26:23;;;;;;;;;23.33;19.67;;;;;2.33;100.00;103777.09;5082905;27;44811;-82
2022/01/13 05:28:48;;;;;;;;;22.67;18.67;;;;;2.35;100.00;103777.97;5083858;28;45367;-83
2022/01/13 05:31:14;;;;;;;;;22.00;18.67;;;;;2.34;100.00;103778.84;5080311;27;45228;-83
2022/01/13 05:33:39;;;;;;;;;15.67;13.33;;;;;2.23;100.00;103786.53;5078478;27;44801;-83
2022/01/13 05:36:05;;;;;;;;;27.33;21.67;;;;;2.20;100.00;103783.84;5076056;27;45300;-83
2022/01/13 05:38:30;;;;;;;;;20.33;20.00;;;;;2.16;100.00;103789.03;5071149;27;44922;-83
2022/01/13 05:40:58;;;;;;;;;13.00;11.67;;;;;2.10;100.00;103787.19;5057452;28;45481;-84
2022/01/13 05:43:26;;;;;;;;;14.33;12.33;;;;;2.08;100.00;103775.81;5057423;28;44858;-84
2022/01/13 05:45:52;;;;;;;;;25.33;23.00;;;;;2.11;100.00;103781.06;5057525;28;44741;-84
2022/01/13 05:48:17;;;;;;;;;12.33;7.67;;;;;2.12;100.00;103771.47;5057897;28;44885;-84
2022/01/13 05:50:43;;;;;;;;;20.33;16.33;;;;;2.20;100.00;103775.09;5058072;28;45231;-82
2022/01/13 05:53:08;;;;;;;;;27.00;18.67;;;;;2.23;100.00;103764.69;5057908;28;45340;-84
2022/01/13 05:55:34;;;;;;;;;23.00;22.33;;;;;2.29;100.00;103776.16;5058472;28;45152;-83
2022/01/13 05:57:59;;;;;;;;;22.00;19.67;;;;;2.26;100.00;103768.22;5059244;28;45461;-82
2022/01/13 06:00:25;;;;;;;;;16.67;16.00;;;;;2.24;100.00;103766.44;5058625;28;45333;-83
2022/01/13 06:02:51;;;;;;;;;23.00;21.67;;;;;2.23;100.00;103767.31;5065264;28;44781;-85
2022/01/13 06:05:18;;;;;;;;;26.33;17.33;;;;;2.30;100.00;103764.78;5066201;28;44815;-84
2022/01/13 06:07:44;;;;;;;;;25.33;21.33;;;;;2.40;100.00;103757.94;5058123;28;45417;-83
2022/01/13 06:10:13;;;;;;;;;21.67;18.67;;;;;2.44;100.00;103769.38;5056224;28;45405;-84
2022/01/13 06:12:39;;;;;;;;;20.00;18.00;;;;;2.41;100.00;103772.81;5057954;28;45316;-84
2022/01/13 06:15:11;;;;;;;;;25.33;20.33;;;;;2.45;100.00;103761.53;5058724;28;44795;-82
2022/01/13 06:17:38;;;;;;;;;20.00;20.00;;;;;2.43;100.00;103762.38;5057402;28;45212;-82
2022/01/13 06:20:05;;;;;;;;;18.00;15.00;;;;;2.39;100.00;103760.56;5056922;28;45246;-84
2022/01/13 06:22:31;;;;;;;;;23.00;22.00;;;;;2.38;100.00;103757.06;5057041;28;44822;-84
2022/01/13 06:24:56;;;;;;;;;18.33;18.00;;;;;2.33;100.00;103774.47;5058208;28;45415;-83
2022/01/13 06:27:22;;;;;;;;;27.00;21.33;;;;;2.36;100.00;103781.47;5059804;28;44821;-85
2022/01/13 06:29:50;;;;;;;;;26.00;22.33;;;;;2.42;100.00;103777.25;5061837;28;45190;-84
2022/01/13 06:32:16;;;;;;;;;26.67;23.67;;;;;2.50;100.00;103767.72;5062777;28;44723;-84
2022/01/13 06:34:41;;;;;;;;;26.33;21.33;;;;;2.56;100.00;103774.81;5063862;28;44709;-84
2022/01/13 06:37:06;;;;;;;;;21.33;19.67;;;;;2.63;100.00;103771.44;5062619;28;44726;-85
2022/01/13 06:39:32;;;;;;;;;28.33;26.67;;;;;2.68;100.00;103777.63;5057182;28;45379;-85
2022/01/13 06:41:57;;;;;;;;;33.67;22.00;;;;;2.70;100.00;103765.41;5059518;28;45181;-84
2022/01/13 06:44:23;;;;;;;;;22.33;17.33;;;;;2.70;100.00;103761.91;5060157;28;45299;-84
2022/01/13 06:46:48;;;;;;;;;26.00;18.67;;;;;2.66;100.00;103758.38;5063173;28;44795;-83
2022/01/13 06:49:13;;;;;;;;;18.67;17.33;;;;;2.66;100.00;103760.06;5066149;28;45007;-84
2022/01/13 06:51:39;;;;;;;;;22.00;17.67;;;;;2.58;100.00;103754.72;5059605;28;44774;-85
2022/01/13 06:54:04;;;;;;;;;22.33;20.00;;;;;2.63;100.00;103753.06;5057805;28;45764;-85
2022/01/13 06:56:30;;;;;;;;;30.67;24.00;;;;;2.63;100.00;103760.94;5059324;28;44887;-84
2022/01/13 06:58:56;;;;;;;;;30.33;22.00;;;;;2.65;100.00;103767.06;5058679;28;45576;-85
2022/01/13 07:01:23;;;;;;;;;22.00;14.00;;;;;2.67;100.00;103764.50;5059224;28;45500;-82
2022/01/13 07:03:51;;;;;;;;;27.33;23.67;;;;;2.69;100.00;103768.00;5062815;28;44787;-85
2022/01/13 07:06:17;;;;;;;;;24.00;19.67;;;;;2.63;100.00;103762.69;5062346;28;44843;-84
2022/01/13 07:08:42;;;;;;;;;24.67;23.67;;;;;2.59;100.00;103767.00;5060813;28;46941;-85
2022/01/13 07:11:08;;;;;;;;;23.00;17.67;;;;;2.62;100.00;103766.16;5060936;28;44713;-84
2022/01/13 07:13:33;;;;;;;;;23.67;22.00;;;;;2.58;100.00;103773.09;5058440;28;44665;-84
2022/01/13 07:16:01;;;;;;;;;22.33;21.00;;;;;2.52;100.00;103779.16;5059985;28;44750;-85
2022/01/13 07:18:31;;;;;;;;;34.33;26.67;;;;;2.47;100.00;103780.81;5059020;28;45310;-85
2022/01/13 07:20:57;;;;;;;;;32.33;28.00;;;;;2.38;100.00;103777.16;5061116;28;45335;-83
2022/01/13 07:23:22;;;;;;;;;21.33;21.33;;;;;2.42;100.00;103786.81;5061110;28;45454;-85
2022/01/13 07:25:48;;;;;;;;;29.00;24.33;;;;;2.46;100.00;103779.03;5057227;28;44892;-85
2022/01/13 07:28:13;;;;;;;;;29.00;24.00;;;;;2.53;100.00;103780.03;5057207;28;45324;-84
2022/01/13 07:30:39;;;;;;;;;23.50;20.50;;;;;2.58;100.00;103779.22;5058197;28;44786;-85
2022/01/13 07:33:04;;;;;;;;;28.67;20.00;;;;;2.61;100.00;103774.88;5065743;28;44825;-86
2022/01/13 07:35:30;;;;;;;;;28.00;21.33;;;;;2.60;100.00;103781.00;5064689;28;44825;-85
2022/01/13 07:37:56;;;;;;;;;32.33;23.67;;;;;2.61;100.00;103773.16;5056390;28;46809;-84
2022/01/13 07:40:23;;;;;;;;;29.33;27.67;;;;;2.69;100.00;103778.50;5060248;28;45134;-84
2022/01/13 07:42:48;;;;;;;;;34.33;28.67;;;;;2.63;100.00;103771.44;5057630;28;45338;-82
2022/01/13 07:45:16;;;;;;;;;36.00;25.00;;;;;2.60;100.00;103781.00;5057653;28;44856;-85
2022/01/13 07:47:42;;;;;;;;;31.00;18.00;;;;;2.54;100.00;103776.53;5057757;28;45232;-84
2022/01/13 07:50:10;;;;;;;;;32.00;23.67;;;;;2.56;100.00;103780.06;5058820;28;44732;-84
2022/01/13 07:52:35;;;;;;;;;20.33;18.33;;;;;2.53;100.00;103769.53;5057765;28;44796;-84
2022/01/13 07:55:01;;;;;;;;;30.33;23.00;;;;;2.56;100.00;103773.09;5056186;28;44956;-84
2022/01/13 07:57:27;;;;;;;;;26.33;23.33;;;;;2.62;100.00;103774.91;5060363;28;44924;-84
2022/01/13 07:59:52;;;;;;;;;27.00;22.00;;;;;2.71;100.00;103774.19;5060546;28;44847;-85
2022/01/13 08:02:20;;;;;;;;;32.33;22.00;;;;;2.80;100.00;103769.03;5059972;28;45410;-85
2022/01/13 08:04:45;;;;;;;;;25.00;23.00;;;;;2.85;100.00;103769.97;5063573;28;45277;-85
2022/01/13 08:07:11;;;;;;;;;26.00;23.67;;;;;2.79;100.00;103762.03;5062065;28;46778;-85
2022/01/13 08:09:36;;;;;;;;;23.50;23.00;;;;;2.84;100.00;103766.47;5064677;28;44646;-84
2022/01/13 08:12:02;;;;;;;;;18.00;18.00;;;;;2.89;100.00;103756.03;5062756;28;44685;-85
2022/01/13 08:14:27;;;;;;;;;33.33;23.00;;;;;2.94;100.00;103763.97;5060850;28;44985;-85
2022/01/13 08:16:57;;;;;;;;;26.00;26.00;;;;;2.98;100.00;103760.53;5061052;28;45351;-83
2022/01/13 08:22:06;;;;;;;;;24.00;23.33;;;;;3.04;100.00;103758.00;5064736;28;44800;-85
2022/01/13 08:24:32;;;;;;;;;20.00;16.33;;;;;3.07;100.00;103758.03;5058824;28;44849;-82
2022/01/13 08:26:58;;;;;;;;;25.00;20.67;;;;;3.11;100.00;103761.59;5058496;28;45425;-84
2022/01/13 08:29:26;;;;;;;;;31.33;23.00;;;;;3.14;100.00;103756.38;5060275;28;44741;-85
2022/01/13 08:31:54;;;;;;;;;27.67;23.33;;;;;3.22;100.00;103757.34;5064607;28;44816;-85
2022/01/13 08:34:19;;;;;;;;;30.67;27.00;;;;;3.29;100.00;103762.72;5064095;28;44929;-84
2022/01/13 08:36:45;;;;;;;;;25.33;22.33;;;;;3.34;100.00;103753.13;5059559;28;47088;-84
2022/01/13 08:39:11;;;;;;;;;35.67;28.00;;;;;3.39;100.00;103753.19;5069907;28;44851;-89
2022/01/13 08:41:36;;;;;;;;;21.00;20.00;;;;;3.45;100.00;103755.88;5084165;27;44881;-88
2022/01/13 08:44:02;;;;;;;;;35.00;24.00;;;;;3.44;100.00;103748.88;5083376;27;45410;-86
2022/01/13 08:46:27;;;;;;;;;26.33;24.33;;;;;3.47;100.00;103750.63;5078692;27;46549;-84
2022/01/13 08:48:54;;;;;;;;;34.67;23.33;;;;;3.40;100.00;103746.19;5079822;27;45498;-85
2022/01/13 08:51:20;;;;;;;;;30.00;22.33;;;;;3.39;100.00;103747.06;5095806;27;45268;-85
2022/01/13 08:53:46;;;;;;;;;26.67;24.00;;;;;3.42;100.00;103750.56;5080062;27;45033;-88
2022/01/13 08:56:15;;;;;;;;;23.33;21.33;;;;;3.40;100.00;103752.31;5080238;28;46665;-87
2022/01/13 08:58:42;;;;;;;;;35.67;26.00;;;;;3.34;100.00;103752.25;5083180;28;44736;-88
2022/01/13 09:01:08;;;;;;;;;27.67;27.67;;;;;3.33;100.00;103746.09;5087184;28;44736;-87
2022/01/13 09:03:35;;;;;;;;;32.67;24.67;;;;;3.26;100.00;103751.28;5085734;28;44928;-86
2022/01/13 09:06:00;;;;;;;;;27.33;23.33;;;;;3.14;100.00;103751.09;5089343;27;45194;-88
2022/01/13 09:08:25;;;;;;;;;41.33;29.67;;;;;2.98;100.00;103766.66;5085630;28;44568;-87
2022/01/13 09:10:51;;;;;;;;;37.33;31.67;;;;;3.00;100.00;103774.59;5081974;27;45300;-86
2022/01/13 09:13:17;;;;;;;;;40.00;29.00;;;;;3.02;100.00;103770.22;5086330;27;44840;-88
2022/01/13 09:15:52;;;;;;;;;41.33;33.00;;;;;3.11;100.00;103778.22;5087653;27;44933;-87
2022/01/13 09:18:30;;;;;;;;;43.00;32.00;;;;;3.09;100.00;103772.97;5085662;27;44749;-89
2022/01/13 09:20:57;;;;;;;;;34.00;26.00;;;;;3.03;100.00;103782.50;5081976;28;44816;-87
2022/01/13 09:23:22;;;;;;;;;38.00;28.67;;;;;2.98;100.00;103779.81;5067676;28;45392;-87
2022/01/13 09:25:48;;;;;;;;;34.67;28.33;;;;;3.01;100.00;103776.34;5072892;28;45074;-87
2022/01/13 09:28:13;;;;;;;;;33.00;28.33;;;;;3.14;100.00;103787.88;5070109;28;44709;-89
2022/01/13 09:30:39;;;;;;;;;37.33;27.00;;;;;3.22;100.00;103783.63;5071846;28;44768;-88
2022/01/13 09:33:06;;;;;;;;;31.00;23.67;;;;;3.31;100.00;103782.00;5067085;28;44939;-86
2022/01/13 09:35:53;;;;;;;;;31.33;26.33;;;;;3.23;100.00;103783.63;5069487;28;45233;-87
2022/01/13 09:38:24;;;;;;;;;28.33;27.33;;;;;3.22;100.00;103791.50;5067258;28;44888;-87
2022/01/13 09:40:54;;;;;;;;;28.67;25.33;;;;;3.25;100.00;103792.44;5066544;28;44685;-87
2022/01/13 09:43:25;;;;;;;;;33.00;27.67;;;;;3.34;100.00;103799.56;5072936;28;45237;-85
2022/01/13 09:45:52;;;;;;;;;31.00;27.33;;;;;3.41;100.00;103790.88;5087232;27;45571;-85
2022/01/13 09:48:17;;;;;;;;;38.00;24.00;;;;;3.40;100.00;103794.38;5091994;27;44799;-82
2022/01/13 09:50:45;;;;;;;;;43.67;33.33;;;;;3.38;100.00;103803.06;5091838;27;45386;-83
2022/01/13 09:53:12;;;;;;;;;35.00;30.00;;;;;3.35;100.00;103796.06;5090726;28;45580;-83
2022/01/13 09:55:41;;;;;;;;;39.67;27.67;;;;;3.24;100.00;103798.56;5062960;28;45324;-84
2022/01/13 09:58:11;;;;;;;;;31.00;28.67;;;;;3.19;100.00;103804.59;5064226;27;44891;-83
2022/01/13 10:00:44;;;;;;;;;18.67;15.00;;;;;3.07;100.00;103815.81;5058536;28;44769;-82
2022/01/13 10:03:30;;;;;;;;;34.33;23.33;;;;;2.95;100.00;103806.03;5060253;28;44958;-83
2022/01/13 10:06:03;;;;;;;;;27.67;25.67;;;;;2.91;100.00;103803.34;5061855;28;46683;-82
2022/01/13 10:08:50;;;;;;;;;34.33;26.67;;;;;2.75;100.00;103802.22;5068631;27;44873;-83
2022/01/13 10:11:58;;;;;;;;;26.00;21.67;;;;;2.74;100.00;103801.34;5062859;28;45370;-82
2022/01/13 10:17:23;;;;;;;;;29.33;24.67;;;;;2.96;100.00;103804.28;5062374;27;45162;-84
2022/01/13 10:20:39;;;;;;;;;33.33;26.67;;;;;3.07;100.00;103806.19;5053936;28;45217;-82
2022/01/13 10:23:22;;;;;;;;;28.00;25.00;;;;;3.05;100.00;103796.53;5054931;27;44831;-83
2022/01/13 10:26:17;;;;;;;;;29.33;27.67;;;;;2.98;100.00;103811.31;5054089;28;44992;-84
2022/01/13 10:28:58;;;;;;;;;34.00;26.33;;;;;3.00;100.00;103806.09;5062736;28;45267;-84
2022/01/13 10:32:10;;;;;;;;;35.67;33.00;;;;;2.97;100.00;103796.44;5071887;27;44842;-84
2022/01/13 10:34:56;;;;;;;;;38.00;26.00;;;;;3.00;100.00;103791.22;5056317;28;45371;-84
2022/01/13 10:37:40;;;;;;;;;31.67;27.33;;;;;3.13;100.00;103800.13;5090295;27;44910;-83
2022/01/13 10:40:21;;;;;;;;;37.00;30.33;;;;;3.15;100.00;103792.31;5073978;27;46877;-84
2022/01/13 10:45:30;;;;;;;;;33.67;28.67;;;;;3.21;100.00;103787.13;5068096;27;44847;-84
2022/01/13 10:48:13;;;;;;;;;36.33;30.33;;;;;3.23;100.00;103794.13;5058011;27;44902;-84
2022/01/13 10:50:55;;;;;;;;;33.33;28.00;;;;;3.07;100.00;103790.44;5055802;28;45360;-84
2022/01/13 10:53:33;;;;;;;;;26.33;24.00;;;;;3.12;100.00;103779.13;5063096;27;44756;-83
2022/01/13 10:56:52;;;;;;;;;31.33;28.33;;;;;3.12;100.00;103776.50;5060894;27;45338;-88
2022/01/13 11:00:04;;;;;;;;;28.67;25.00;;;;;3.12;100.00;103779.13;5056634;28;45335;-88
2022/01/13 11:02:32;;;;;;;;;33.33;27.33;;;;;3.21;100.00;103787.13;5075805;27;45316;-87
2022/01/13 11:05:53;;;;;;;;;23.67;18.33;;;;;3.05;100.00;103780.78;5071281;27;44823;-88
2022/01/13 11:09:09;;;;;;;;;;;;;;;;;;;;;
2022/01/13 11:12:12;;;;;;;;;;;;;;;;;;;;;
2022/01/13 11:18:27;;;;;;;;;32.67;29.00;;;;;3.13;100.00;103773.00;5027359;28;44787;-85
2022/01/13 11:21:10;;;;;;;;;;;;;;;;;;;;;
2022/01/13 11:39:00;;;;;;;;;43.00;35.00;;;;;3.58;100.00;103760.41;4829965;29;45490;-87
2022/01/13 11:41:26;;;;;;;;;31.00;23.00;;;;;3.67;100.00;103743.84;4851333;29;45182;-86
2022/01/13 11:45:00;;;;;;;;;47.67;40.33;;;;;3.74;100.00;103735.16;4855133;29;44790;-86
2022/01/13 11:51:38;;;;;;;;;44.00;38.33;;;;;3.77;100.00;103732.56;4855695;29;45010;-87
2022/01/13 11:54:38;;;;;;;;;;;;;;;;;;;;;
2022/01/13 12:01:35;;;;;;;;;33.00;30.00;;;;;4.09;100.00;103711.78;4863074;29;45041;-86
2022/01/13 12:04:58;;;;;;;;;;;;;;;;;;;;;
2022/01/13 12:14:39;;;;;;;;;36.67;29.00;;;;;4.19;100.00;103703.97;4850348;29;45477;-86
2022/01/13 12:17:27;;;;;;;;;41.00;33.00;;;;;4.21;100.00;103697.88;4847148;29;44948;-85
2022/01/13 12:20:01;;;;;;;;;42.33;34.33;;;;;4.24;100.00;103699.63;4850517;29;45199;-85
2022/01/13 12:22:36;;;;;;;;;37.00;35.67;;;;;4.27;100.00;103695.28;4851399;29;44841;-85
2022/01/13 12:25:05;;;;;;;;;34.33;33.33;;;;;4.34;100.00;103704.09;4853924;29;44825;-85
2022/01/13 12:27:39;;;;;;;;;39.67;36.00;;;;;4.27;100.00;103697.03;4865390;29;44839;-86
2022/01/13 12:30:05;;;;;;;;;49.33;34.33;;;;;4.29;100.00;103697.91;4861457;29;45574;-87
2022/01/13 12:32:42;;;;;;;;;43.33;38.33;;;;;4.17;100.00;103693.44;4851669;29;44864;-85
2022/01/13 12:35:15;;;;;;;;;37.00;27.33;;;;;4.17;100.00;103687.31;4859201;29;44811;-86